Time;durP1;ratioP1;P1;durP2;ratioP2;P2;SDS_P1;SDS_P2;PMS_P1;PMS_P2;Temp;Humidity;BMP_temperature;BMP_pressure;BME280_temperature;BME280_humidity;BME280_pressure;Samples;Min_cycle;Max_cycle;Signal;HPM_P1;HPM_P2
2022/03/20 05:22:38;;;;;;;42.95;19.48;;;;;;;3.85;59.81;101336.03;5129505;27;20111;-69
2022/03/20 05:25:08;;;;;;;39.88;20.42;;;;;;;3.83;60.48;101335.25;5111582;28;20106;-69
2022/03/20 05:27:36;;;;;;;45.47;21.27;;;;;;;3.86;60.38;101336.88;5129876;28;20396;-69
2022/03/20 05:30:05;;;;;;;36.00;19.35;;;;;;;3.86;60.88;101332.44;5129693;27;20119;-69
2022/03/20 05:32:32;;;;;;;44.58;20.73;;;;;;;3.85;60.85;101335.16;5150754;22;20569;-71
2022/03/20 05:34:59;;;;;;;46.38;20.55;;;;;;;3.87;61.16;101331.47;5108965;28;20406;-71
2022/03/20 05:37:25;;;;;;;38.80;19.90;;;;;;;3.85;60.79;101337.78;5107658;28;20035;-71
2022/03/20 05:39:50;;;;;;;36.75;18.88;;;;;;;3.81;61.78;101329.25;5108968;28;20036;-71
2022/03/20 05:42:16;;;;;;;37.65;20.90;;;;;;;3.79;62.36;101346.97;5108579;28;20102;-71
2022/03/20 05:44:44;;;;;;;37.40;20.38;;;;;;;3.80;61.70;101354.78;5109028;28;20438;-71
2022/03/20 05:47:10;;;;;;;35.80;20.02;;;;;;;3.80;62.13;101349.50;5108742;28;20063;-70
2022/03/20 05:49:38;;;;;;;33.58;18.67;;;;;;;3.76;62.05;101357.72;5108760;28;20462;-71
2022/03/20 05:52:06;;;;;;;40.63;20.20;;;;;;;3.79;61.91;101355.72;5107181;28;20032;-70
2022/03/20 05:54:31;;;;;;;37.42;19.52;;;;;;;3.81;60.91;101345.06;5108619;28;20023;-71
2022/03/20 05:59:41;;;;;;;40.90;19.83;;;;;;;3.86;62.44;101363.22;5107623;28;20036;-70
2022/03/20 06:02:10;;;;;;;35.55;18.20;;;;;;;3.78;65.37;101354.03;5108468;28;20105;-71
2022/03/20 06:04:37;;;;;;;34.03;18.63;;;;;;;3.81;63.13;101367.00;5108657;28;20031;-71
2022/03/20 06:07:03;;;;;;;36.92;19.00;;;;;;;3.72;69.12;101372.91;5108582;28;20032;-71
2022/03/20 06:09:29;;;;;;;34.08;17.88;;;;;;;3.73;69.22;101368.47;5108396;28;20035;-71
2022/03/20 06:11:56;;;;;;;33.58;18.83;;;;;;;3.70;69.25;101368.66;5106762;28;20032;-71
2022/03/20 06:14:22;;;;;;;33.10;18.38;;;;;;;3.71;66.45;101381.72;5107001;28;20131;-71
2022/03/20 06:16:48;;;;;;;32.63;19.50;;;;;;;3.75;68.64;101383.22;5108808;28;20071;-71
2022/03/20 06:19:15;;;;;;;41.05;20.63;;;;;;;3.78;69.01;101385.69;5108660;28;20059;-71
2022/03/20 06:21:42;;;;;;;35.05;20.33;;;;;;;3.78;67.21;101379.53;5108207;28;20078;-71
2022/03/20 06:24:08;;;;;;;34.63;18.50;;;;;;;3.70;68.35;101368.66;5108285;28;20043;-71
2022/03/20 06:26:35;;;;;;;36.53;20.58;;;;;;;3.74;69.38;101375.44;5108307;28;20080;-71
2022/03/20 06:29:01;;;;;;;33.90;18.13;;;;;;;3.70;70.32;101389.75;5107943;28;20032;-71
2022/03/20 06:31:26;;;;;;;37.92;20.42;;;;;;;3.79;70.28;101395.28;5107807;28;20396;-71
2022/03/20 06:33:54;;;;;;;38.65;20.45;;;;;;;3.81;68.23;101392.53;5094939;28;20047;-71
2022/03/20 06:36:20;;;;;;;37.63;18.73;;;;;;;3.91;67.47;101398.88;5094454;28;20032;-71
2022/03/20 06:38:45;;;;;;;31.50;17.67;;;;;;;3.96;71.59;101396.75;5094409;28;20039;-71
2022/03/20 06:41:11;;;;;;;31.27;17.60;;;;;;;3.92;73.52;101418.19;5094325;28;20032;-71
2022/03/20 06:43:38;;;;;;;36.42;18.58;;;;;;;3.93;74.43;101414.59;5093872;28;20135;-71
2022/03/20 06:46:05;;;;;;;34.22;17.88;;;;;;;3.97;72.82;101411.63;5094214;28;20090;-71
2022/03/20 06:48:31;;;;;;;32.38;18.98;;;;;;;4.04;70.77;101412.94;5094110;28;20032;-71
2022/03/20 06:50:57;;;;;;;35.42;19.58;;;;;;;4.12;70.03;101411.56;5094022;28;20561;-71
2022/03/20 06:53:23;;;;;;;31.63;18.30;;;;;;;4.12;73.53;101430.03;5093779;28;20052;-71
2022/03/20 06:55:49;;;;;;;34.63;19.17;;;;;;;4.19;69.07;101424.25;5094086;28;20035;-71
2022/03/20 06:58:15;;;;;;;33.67;18.55;;;;;;;4.25;69.88;101423.81;5075812;28;20070;-71
2022/03/20 07:00:41;;;;;;;32.38;18.45;;;;;;;4.25;68.42;101423.81;5094031;28;20029;-71
2022/03/20 07:03:08;;;;;;;30.85;17.00;;;;;;;4.28;68.22;101407.78;5092275;28;20047;-71
2022/03/20 07:05:35;;;;;;;31.42;18.25;;;;;;;4.34;68.45;101424.97;5093936;28;20040;-71
2022/03/20 07:08:02;;;;;;;35.58;20.17;;;;;;;4.36;68.64;101433.63;5093578;28;20039;-70
2022/03/20 07:10:29;;;;;;;32.73;18.50;;;;;;;4.44;69.47;101436.59;5093443;28;20334;-70
2022/03/20 07:15:40;;;;;;;38.25;19.63;;;;;;;4.66;67.70;101441.25;5093747;28;20048;-70
2022/03/20 07:18:06;;;;;;;34.65;19.33;;;;;;;4.68;69.17;101441.13;5093481;28;20044;-70
2022/03/20 07:20:32;;;;;;;41.75;21.73;;;;;;;4.78;68.41;101458.88;5093690;28;20036;-70
2022/03/20 07:22:58;;;;;;;36.80;20.55;;;;;;;4.89;68.31;101450.22;5093504;28;20035;-70
2022/03/20 07:30:52;;;;;;;35.05;19.52;;;;;;;5.11;67.08;101455.66;5094966;28;20086;-71
2022/03/20 07:33:18;;;;;;;34.83;19.85;;;;;;;5.18;67.52;101458.72;5093180;28;20072;-68
2022/03/20 07:35:52;;;;;;;31.40;18.77;;;;;;;5.27;67.25;101459.84;5076322;28;20196;-68
2022/03/20 07:38:18;;;;;;;34.17;19.63;;;;;;;5.40;66.02;101461.50;5093215;28;20560;-68
2022/03/20 07:40:43;;;;;;;35.53;20.17;;;;;;;5.45;65.79;101469.94;5093632;28;20039;-68
2022/03/20 07:43:09;;;;;;;33.63;19.58;;;;;;;5.56;66.83;101470.97;5093275;28;20032;-69
2022/03/20 07:45:35;;;;;;;37.60;21.02;;;;;;;5.60;67.52;101470.63;5092142;28;20040;-69
2022/03/20 07:48:02;;;;;;;33.72;18.85;;;;;;;5.73;65.63;101467.94;5092970;28;20055;-68
2022/03/20 07:50:28;;;;;;;31.98;19.35;;;;;;;5.76;66.86;101480.09;5092969;28;20047;-68
2022/03/20 07:52:56;;;;;;;37.33;19.80;;;;;;;5.87;66.54;101472.25;5093825;28;20036;-69
2022/03/20 07:55:23;;;;;;;36.22;18.45;;;;;;;5.85;67.45;101480.25;5094664;28;20036;-69
2022/03/20 07:57:49;;;;;;;30.95;18.58;;;;;;;5.95;66.14;101470.75;5095228;28;20040;-69
2022/03/20 08:00:15;;;;;;;34.63;18.67;;;;;;;5.90;67.57;101467.56;5092807;28;20039;-69
2022/03/20 08:02:42;;;;;;;41.30;20.50;;;;;;;5.92;70.46;101476.25;5093086;28;20051;-69
2022/03/20 08:05:08;;;;;;;33.50;18.35;;;;;;;6.04;68.21;101481.59;5091405;28;20497;-69
2022/03/20 08:07:38;;;;;;;39.90;20.30;;;;;;;5.98;65.45;101482.88;5092767;28;20036;-67
2022/03/20 08:10:12;;;;;;;39.90;21.42;;;;;;;6.05;64.03;101473.53;5092675;28;20032;-66
2022/03/20 08:12:39;;;;;;;32.75;18.30;;;;;;;6.05;64.72;101473.53;5092053;28;20137;-69
2022/03/20 08:15:06;;;;;;;33.08;20.63;;;;;;;6.12;66.74;101474.75;5092512;28;20048;-70
2022/03/20 08:17:41;;;;;;;34.97;20.10;;;;;;;6.15;67.22;101463.13;5092375;28;20032;-69
2022/03/20 08:20:07;;;;;;;33.80;19.85;;;;;;;6.27;65.19;101467.50;5092387;28;20117;-69
2022/03/20 08:22:33;;;;;;;37.55;20.70;;;;;;;6.32;69.23;101470.59;5092039;28;20042;-69
2022/03/20 08:24:59;;;;;;;34.30;20.17;;;;;;;6.41;67.68;101477.03;5092211;28;20036;-69
2022/03/20 08:27:25;;;;;;;44.58;20.52;;;;;;;6.58;65.76;101471.28;5088771;28;20404;-69
2022/03/20 08:29:51;;;;;;;34.90;20.05;;;;;;;6.60;65.22;101463.22;5087989;28;20032;-68
2022/03/20 08:32:17;;;;;;;35.17;20.85;;;;;;;6.57;67.23;101477.53;5090939;28;20032;-69
2022/03/20 08:34:43;;;;;;;36.38;20.55;;;;;;;6.75;66.07;101475.28;5091877;28;20051;-69
2022/03/20 08:37:08;;;;;;;40.38;21.25;;;;;;;6.74;69.65;101471.78;5091928;28;20063;-69
2022/03/20 08:39:34;;;;;;;36.25;20.92;;;;;;;6.76;70.78;101475.16;5091854;28;20036;-68
2022/03/20 08:42:00;;;;;;;35.00;19.73;;;;;;;6.95;67.43;101479.03;5089851;28;20523;-69
2022/03/20 08:44:26;;;;;;;34.75;19.75;;;;;;;7.08;66.63;101485.06;5091783;28;20412;-69
2022/03/20 08:46:52;;;;;;;36.00;20.35;;;;;;;7.11;65.06;101497.19;5090079;28;20036;-68
2022/03/20 08:49:19;;;;;;;40.85;22.10;;;;;;;7.29;67.72;101490.47;5090615;28;20036;-69
2022/03/20 08:51:45;;;;;;;43.03;23.02;;;;;;;7.57;65.46;101505.88;5089607;28;20528;-70
2022/03/20 08:54:11;;;;;;;36.30;20.90;;;;;;;7.72;63.45;101527.66;5091756;28;20413;-69
2022/03/20 08:56:38;;;;;;;37.78;21.52;;;;;;;7.91;61.92;101531.47;5091438;28;20068;-69
2022/03/20 08:59:03;;;;;;;41.00;21.17;;;;;;;8.11;62.71;101558.06;5091252;28;20122;-67
2022/03/20 09:01:30;;;;;;;35.75;20.58;;;;;;;8.34;61.54;101544.69;5091175;28;20115;-68
2022/03/20 09:03:55;;;;;;;38.08;21.08;;;;;;;8.56;60.20;101565.03;5090940;28;20512;-68
2022/03/20 09:06:22;;;;;;;35.65;20.85;;;;;;;8.70;59.18;101556.75;5090217;28;20061;-70
2022/03/20 09:08:49;;;;;;;32.60;20.13;;;;;;;8.78;60.45;101558.75;5091253;28;20023;-69
2022/03/20 09:11:14;;;;;;;38.00;20.92;;;;;;;8.83;57.90;101552.09;5091341;28;20036;-69
2022/03/20 09:13:40;;;;;;;36.78;20.73;;;;;;;8.89;58.49;101562.19;5090568;28;20043;-69
2022/03/20 09:18:59;;;;;;;39.15;22.42;;;;;;;8.85;57.86;101563.41;5091485;28;20133;-69
2022/03/20 09:21:27;;;;;;;37.72;20.40;;;;;;;8.82;59.88;101574.31;5090270;28;20043;-69
2022/03/20 09:23:52;;;;;;;35.13;21.35;;;;;;;9.04;58.80;101569.81;5090889;28;20139;-69
2022/03/20 09:26:18;;;;;;;40.78;21.65;;;;;;;8.88;58.31;101568.50;5092228;28;20514;-70
2022/03/20 09:28:45;;;;;;;40.95;21.23;;;;;;;8.92;58.15;101572.56;5092772;28;20040;-70
2022/03/20 09:31:11;;;;;;;39.47;21.88;;;;;;;8.85;58.45;101574.03;5092531;28;20036;-69
2022/03/20 09:33:37;;;;;;;36.50;21.75;;;;;;;8.87;58.26;101572.13;5089302;28;20040;-69
2022/03/20 09:36:03;;;;;;;37.65;20.80;;;;;;;8.84;58.19;101575.03;5091449;28;20327;-69
2022/03/20 09:38:29;;;;;;;38.05;21.60;;;;;;;8.84;58.57;101587.47;5091242;28;20043;-69
2022/03/20 09:40:58;;;;;;;35.15;21.38;;;;;;;8.83;58.96;101576.00;5091102;28;20457;-69
2022/03/20 09:43:25;;;;;;;31.80;21.92;;;;;;;8.79;58.65;101574.56;5090017;28;20039;-69
2022/03/20 09:45:52;;;;;;;33.92;21.35;;;;;;;8.82;59.11;101579.63;5091241;28;20107;-69
2022/03/20 09:48:18;;;;;;;37.50;21.67;;;;;;;8.91;58.39;101578.00;5090633;28;20028;-69
2022/03/20 09:50:47;;;;;;;37.47;22.45;;;;;;;8.94;59.75;101575.94;5091047;28;20034;-69
2022/03/20 09:53:13;;;;;;;35.50;20.80;;;;;;;9.01;61.41;101578.09;5091563;28;20592;-69
2022/03/20 09:55:39;;;;;;;38.65;21.30;;;;;;;9.31;58.77;101574.59;5089921;28;20044;-69
2022/03/20 09:58:04;;;;;;;33.33;21.77;;;;;;;9.45;56.97;101563.59;5089791;28;20036;-70
2022/03/20 10:00:32;;;;;;;35.60;20.27;;;;;;;9.36;58.89;101567.06;5091028;28;20400;-70
2022/03/20 10:02:57;;;;;;;34.72;21.52;;;;;;;9.17;58.11;101575.78;5089679;28;20032;-69
2022/03/20 10:05:26;;;;;;;34.25;21.10;;;;;;;9.11;59.75;101576.31;5091097;28;20036;-69
2022/03/20 10:07:51;;;;;;;31.15;20.42;;;;;;;9.21;58.75;101585.19;5092295;28;20059;-69
2022/03/20 10:10:25;;;;;;;33.85;20.40;;;;;;;9.52;57.72;101581.56;5094876;28;20024;-69
2022/03/20 10:12:55;;;;;;;35.80;20.50;;;;;;;9.67;56.22;101581.19;5094686;28;20044;-69
2022/03/20 10:15:40;;;;;;;32.92;19.77;;;;;;;9.88;56.78;101581.94;5094837;28;20493;-70
2022/03/20 10:18:06;;;;;;;34.65;20.88;;;;;;;9.44;54.88;101580.53;5094817;28;20032;-70
2022/03/20 10:20:44;;;;;;;33.83;19.98;;;;;;;9.65;54.75;101584.00;5093399;28;20505;-70
2022/03/20 10:23:32;;;;;;;37.90;21.90;;;;;;;9.77;55.55;101580.22;5094410;28;20043;-69
2022/03/20 10:25:59;;;;;;;32.70;20.02;;;;;;;9.49;55.75;101576.50;5094613;28;20036;-69
2022/03/20 10:28:35;;;;;;;34.77;20.53;;;;;;;9.65;55.21;101577.78;5094670;28;20035;-69
2022/03/20 10:31:03;;;;;;;33.13;19.45;;;;;;;9.68;56.59;101572.22;5094173;28;20061;-69
2022/03/20 10:33:28;;;;;;;32.80;20.52;;;;;;;9.98;54.05;101571.34;5094495;28;20468;-69
2022/03/20 10:36:20;;;;;;;33.67;20.10;;;;;;;10.05;55.02;101562.66;5094644;28;20110;-69
2022/03/20 10:38:50;;;;;;;33.15;19.98;;;;;;;10.20;53.80;101564.91;5094547;28;20081;-69
2022/03/20 10:41:27;;;;;;;32.55;20.25;;;;;;;10.23;54.18;101562.81;5094466;28;20020;-70
2022/03/20 10:43:57;;;;;;;38.95;21.67;;;;;;;10.19;56.39;101561.41;5094426;28;20035;-70
2022/03/20 10:46:27;;;;;;;33.20;20.30;;;;;;;10.43;55.08;101553.03;5094290;28;20490;-70
2022/03/20 10:48:55;;;;;;;36.95;20.23;;;;;;;10.46;55.75;101555.41;5094333;28;20064;-70
2022/03/20 10:51:37;;;;;;;36.80;22.10;;;;;;;10.57;52.87;101559.75;5094204;28;20082;-69
2022/03/20 10:54:25;;;;;;;35.35;20.60;;;;;;;10.62;53.80;101551.31;5092928;28;20537;-68
2022/03/20 10:56:53;;;;;;;36.38;20.75;;;;;;;10.69;53.39;101555.09;5094306;28;20032;-70
2022/03/20 10:59:20;;;;;;;34.95;21.08;;;;;;;11.08;53.14;101555.84;5094180;28;20050;-69
2022/03/20 11:01:47;;;;;;;36.45;20.67;;;;;;;11.21;52.37;101548.38;5094056;28;20051;-69
2022/03/20 11:04:17;;;;;;;36.10;21.73;;;;;;;11.56;51.57;101549.50;5094122;28;20051;-69
2022/03/20 11:06:45;;;;;;;37.67;21.70;;;;;;;11.45;51.45;101555.88;5094158;28;20446;-69
2022/03/20 11:09:11;;;;;;;36.80;20.55;;;;;;;11.67;52.04;101550.16;5094066;28;20028;-69
2022/03/20 11:11:44;;;;;;;34.65;21.60;;;;;;;11.85;51.76;101544.03;5093478;28;20450;-69
2022/03/20 11:14:15;;;;;;;34.30;20.38;;;;;;;12.22;49.52;101542.09;5093909;28;20035;-68
2022/03/20 11:16:42;;;;;;;36.10;21.13;;;;;;;12.18;50.13;101548.72;5094438;28;20044;-70
2022/03/20 11:19:13;;;;;;;35.30;20.77;;;;;;;12.61;48.97;101543.59;5093583;28;20036;-69
2022/03/20 11:21:47;;;;;;;32.17;20.52;;;;;;;12.84;48.39;101543.91;5093216;28;20085;-69
2022/03/20 11:24:15;;;;;;;34.30;20.00;;;;;;;13.03;47.60;101535.69;5092157;28;20028;-69
2022/03/20 11:26:43;;;;;;;30.00;20.63;;;;;;;13.28;47.46;101532.19;5093650;28;20422;-69
2022/03/20 11:29:11;;;;;;;;;;;;;;;13.44;47.76;101536.78;5094000;28;20170;-69
2022/03/20 11:31:37;;;;;;;;;;;;;;;13.48;48.03;101535.47;5093789;28;20357;-69
2022/03/20 11:34:05;;;;;;;33.88;18.38;;;;;;;13.70;47.34;101531.38;5093325;28;19992;-69
2022/03/20 11:36:50;;;;;;;29.95;19.23;;;;;;;13.94;46.81;101540.47;5093267;28;20096;-69
2022/03/20 11:39:17;;;;;;;35.17;20.70;;;;;;;13.83;48.70;101531.75;5093251;28;20074;-69
2022/03/20 11:41:42;;;;;;;39.97;20.63;;;;;;;14.01;47.65;101531.59;5092767;28;20048;-68
2022/03/20 11:44:14;;;;;;;32.10;20.92;;;;;;;14.02;47.21;101525.25;5093197;28;20063;-70
2022/03/20 11:46:43;;;;;;;34.75;20.52;;;;;;;14.28;46.07;101524.25;5091839;28;20020;-70
2022/03/20 11:49:13;;;;;;;32.25;18.77;;;;;;;14.42;46.04;101520.09;5093092;28;20061;-70
2022/03/20 11:52:07;;;;;;;33.45;20.88;;;;;;;14.19;46.46;101507.34;5092871;28;20114;-69
2022/03/20 11:54:41;;;;;;;34.35;19.98;;;;;;;13.67;47.99;101501.41;5086767;28;20097;-69
2022/03/20 11:57:32;;;;;;;31.25;18.42;;;;;;;14.17;46.64;101506.69;5094198;28;20115;-71
2022/03/20 12:00:08;;;;;;;33.58;19.95;;;;;;;14.37;46.57;101505.34;5093384;28;20067;-70
2022/03/20 12:02:40;;;;;;;32.95;19.13;;;;;;;14.44;46.49;101496.63;5092966;28;20050;-70
2022/03/20 12:05:15;;;;;;;32.05;19.65;;;;;;;14.77;46.23;101494.78;5092975;28;20032;-70
2022/03/20 12:08:07;;;;;;;28.85;18.73;;;;;;;15.06;45.67;101473.59;5094345;28;20093;-69
2022/03/20 12:11:05;;;;;;;27.95;18.70;;;;;;;15.32;45.64;101489.44;5093948;28;20036;-68
2022/03/20 12:13:55;;;;;;;35.03;19.42;;;;;;;16.07;43.91;101483.50;5093330;28;20066;-69
2022/03/20 12:16:48;;;;;;;30.77;17.63;;;;;;;17.03;42.77;101477.41;5092958;28;20040;-70
2022/03/20 12:19:16;;;;;;;29.90;17.63;;;;;;;17.81;39.57;101473.22;5092817;28;20024;-69
2022/03/20 12:21:59;;;;;;;26.63;16.38;;;;;;;18.52;37.95;101473.25;5092056;28;20032;-67
2022/03/20 12:24:57;;;;;;;27.45;17.27;;;;;;;19.45;36.25;101465.72;5092433;28;20044;-70
2022/03/20 12:27:23;;;;;;;28.60;16.65;;;;;;;19.82;35.54;101455.44;5092487;28;20032;-69
2022/03/20 12:29:55;;;;;;;24.20;16.52;;;;;;;20.19;34.90;101452.16;5091972;28;20111;-70
2022/03/20 12:32:22;;;;;;;28.10;17.73;;;;;;;20.90;34.31;101456.09;5090031;28;20036;-71
2022/03/20 12:35:00;;;;;;;27.80;16.13;;;;;;;21.17;33.33;101454.97;5092112;28;20035;-69
2022/03/20 12:37:32;;;;;;;26.45;15.43;;;;;;;21.46;32.88;101447.38;5091910;28;20051;-71
2022/03/20 12:40:30;;;;;;;26.67;15.73;;;;;;;22.03;31.98;101442.84;5091713;28;20063;-69
2022/03/20 12:42:59;;;;;;;31.33;15.73;;;;;;;21.77;31.66;101436.53;5091139;28;20517;-70
2022/03/20 12:45:27;;;;;;;22.05;14.63;;;;;;;22.08;30.68;101438.41;5091916;28;20051;-69
2022/03/20 12:47:55;;;;;;;27.42;15.13;;;;;;;22.18;30.94;101433.38;5090997;28;20135;-69
2022/03/20 12:50:31;;;;;;;22.50;13.02;;;;;;;23.17;29.59;101431.56;5092191;28;20040;-71
2022/03/20 12:53:14;;;;;;;19.90;12.52;;;;;;;23.15;29.89;101439.13;5092109;28;20032;-70
2022/03/20 12:55:40;;;;;;;19.65;12.15;;;;;;;21.88;30.55;101430.44;5090554;28;20485;-69
2022/03/20 12:58:13;;;;;;;17.75;11.80;;;;;;;22.64;30.02;101431.28;5091744;28;20042;-69
2022/03/20 13:00:39;;;;;;;19.83;11.07;;;;;;;23.16;28.76;101423.63;5091608;28;20048;-69
2022/03/20 13:03:07;;;;;;;22.50;12.10;;;;;;;23.66;28.26;101417.94;5091313;28;20036;-70
2022/03/20 13:05:50;;;;;;;19.77;11.13;;;;;;;21.99;30.96;101431.63;5091741;28;20056;-70
2022/03/20 13:08:25;;;;;;;17.48;10.43;;;;;;;22.90;29.68;101408.47;5091746;28;20051;-69
2022/03/20 13:10:56;;;;;;;18.90;11.73;;;;;;;23.12;28.94;101415.09;5091523;28;20032;-69
2022/03/20 13:13:29;;;;;;;18.98;12.30;;;;;;;23.31;28.31;101407.75;5091487;28;20390;-70
2022/03/20 13:15:56;;;;;;;20.75;11.70;;;;;;;23.70;29.62;101409.09;5091640;28;20453;-70
2022/03/20 13:18:27;;;;;;;17.27;10.43;;;;;;;22.33;31.28;101415.91;5091528;28;20028;-69
2022/03/20 13:20:53;;;;;;;16.92;10.73;;;;;;;22.35;30.14;101406.50;5091433;28;20397;-69
2022/03/20 13:23:21;;;;;;;14.20;10.13;;;;;;;23.49;30.52;101394.13;5091220;28;20439;-68
2022/03/20 13:25:52;;;;;;;17.05;11.20;;;;;;;22.86;30.34;101401.81;5091664;28;20097;-69
2022/03/20 13:28:33;;;;;;;19.65;11.40;;;;;;;23.88;30.26;101400.06;5091414;28;20128;-68
2022/03/20 13:31:01;;;;;;;15.80;10.02;;;;;;;23.58;29.07;101397.31;5091160;28;20044;-69
2022/03/20 13:33:28;;;;;;;14.68;9.75;;;;;;;22.65;30.79;101403.09;5091048;28;20048;-69
2022/03/20 13:35:54;;;;;;;14.95;10.23;;;;;;;23.90;29.30;101399.81;5091449;28;20562;-69
2022/03/20 13:38:20;;;;;;;17.92;10.30;;;;;;;23.79;29.75;101391.38;5089930;28;20048;-70
2022/03/20 13:40:46;;;;;;;15.95;10.07;;;;;;;24.29;29.40;101393.69;5091470;28;20024;-70
2022/03/20 13:43:22;;;;;;;14.20;9.75;;;;;;;23.95;29.14;101398.06;5093020;28;20059;-70
2022/03/20 13:45:48;;;;;;;16.60;10.35;;;;;;;22.88;30.29;101391.56;5095317;28;20105;-69
2022/03/20 13:48:15;;;;;;;15.63;9.73;;;;;;;23.94;28.87;101393.69;5095213;28;20038;-69
2022/03/20 13:50:41;;;;;;;15.25;9.32;;;;;;;23.31;29.60;101399.59;5093934;28;20485;-68
2022/03/20 13:53:07;;;;;;;18.80;10.13;;;;;;;24.53;27.32;101386.41;5094831;28;20047;-69
2022/03/20 13:55:40;;;;;;;17.55;10.10;;;;;;;24.30;26.50;101383.63;5093116;28;20048;-69
2022/03/20 13:58:06;;;;;;;14.25;9.05;;;;;;;24.25;28.51;101387.06;5095089;28;20501;-68
2022/03/20 14:00:38;;;;;;;14.95;9.30;;;;;;;24.54;27.37;101379.06;5093670;28;20037;-69
2022/03/20 14:03:06;;;;;;;15.23;8.48;;;;;;;24.76;27.53;101379.25;5094589;28;20135;-70
2022/03/20 14:05:34;;;;;;;14.90;9.55;;;;;;;23.32;28.03;101381.41;5093451;28;20030;-69
2022/03/20 14:08:09;;;;;;;14.25;8.95;;;;;;;24.03;27.93;101378.66;5094672;28;20040;-69
2022/03/20 14:10:57;;;;;;;17.13;9.90;;;;;;;24.03;28.21;101373.22;5094754;28;20040;-69
2022/03/20 14:13:29;;;;;;;19.33;9.07;;;;;;;23.71;28.69;101377.28;5094338;28;20120;-69
2022/03/20 14:15:56;;;;;;;16.08;9.75;;;;;;;22.74;29.82;101377.28;5093291;28;20123;-69
2022/03/20 14:18:22;;;;;;;13.77;9.32;;;;;;;22.37;29.82;101374.56;5094701;28;20036;-69
2022/03/20 14:20:48;;;;;;;14.80;9.25;;;;;;;21.76;32.04;101383.38;5094432;28;20094;-69
2022/03/20 14:23:13;;;;;;;19.33;9.18;;;;;;;21.52;32.77;101371.47;5094082;28;20428;-69
2022/03/20 14:25:42;;;;;;;14.98;9.40;;;;;;;21.11;32.56;101374.53;5094454;28;20032;-70
2022/03/20 14:28:13;;;;;;;15.80;9.52;;;;;;;20.76;32.80;101374.06;5094313;28;20102;-68
2022/03/20 14:42:03;;;;;;;17.98;9.63;;;;;;;19.78;35.28;101372.06;5094113;28;20043;-70
2022/03/20 14:44:30;;;;;;;20.23;10.90;;;;;;;19.77;34.59;101372.28;5094217;28;20032;-70
2022/03/20 14:47:00;;;;;;;19.27;12.00;;;;;;;19.24;35.90;101372.97;5094093;28;20068;-72
2022/03/20 14:49:27;;;;;;;15.57;10.50;;;;;;;19.42;34.78;101374.25;5094155;28;20056;-71
2022/03/20 14:51:53;;;;;;;16.98;9.15;;;;;;;19.14;34.47;101367.09;5093744;28;20125;-73
2022/03/20 14:54:19;;;;;;;15.40;9.68;;;;;;;18.94;34.64;101364.34;5093740;28;20036;-72
2022/03/20 14:56:46;;;;;;;14.52;9.32;;;;;;;18.66;36.18;101363.56;5094071;28;20330;-70
2022/03/20 14:59:12;;;;;;;17.77;9.98;;;;;;;18.50;35.70;101359.28;5092777;28;20050;-72
2022/03/20 15:01:46;;;;;;;17.45;9.55;;;;;;;18.56;36.74;101358.50;5093564;28;20028;-71
2022/03/20 15:04:13;;;;;;;19.50;9.32;;;;;;;18.49;35.67;101367.59;5094024;28;20115;-72
2022/03/20 15:06:43;;;;;;;14.45;10.43;;;;;;;18.64;35.40;101361.03;5094649;28;20103;-72
2022/03/20 15:11:57;;;;;;;12.00;8.80;;;;;;;18.49;35.36;101364.88;5093423;28;20074;-73
2022/03/20 15:14:23;;;;;;;17.70;9.93;;;;;;;18.37;35.37;101361.91;5093273;28;20044;-72
2022/03/20 15:16:49;;;;;;;15.43;9.43;;;;;;;18.28;35.53;101377.41;5093579;28;20473;-73
2022/03/20 15:19:15;;;;;;;17.00;9.38;;;;;;;18.45;35.65;101367.13;5075635;28;20165;-72
2022/03/20 15:21:41;;;;;;;17.77;10.82;;;;;;;18.46;35.53;101365.31;5092256;28;20032;-72
2022/03/20 15:24:10;;;;;;;22.05;14.15;;;;;;;18.59;35.94;101365.38;5093485;28;20036;-73
2022/03/20 15:26:40;;;;;;;15.70;9.25;;;;;;;18.35;36.31;101364.81;5092954;28;20048;-70
2022/03/20 15:29:06;;;;;;;17.63;9.57;;;;;;;18.47;37.81;101367.78;5093538;28;20119;-69
2022/03/20 15:31:33;;;;;;;16.98;9.00;;;;;;;18.35;36.78;101358.59;5088862;28;20062;-70
2022/03/20 15:33:59;;;;;;;14.60;8.40;;;;;;;18.36;37.14;101362.94;5093048;28;20027;-70
2022/03/20 15:36:25;;;;;;;16.73;10.45;;;;;;;18.53;36.71;101366.16;5093017;28;20452;-70
2022/03/20 15:38:54;;;;;;;11.40;8.18;;;;;;;18.58;36.30;101352.91;5092755;28;20039;-70
2022/03/20 15:41:22;;;;;;;20.85;9.80;;;;;;;18.55;36.11;101356.00;5092531;28;20032;-70
2022/03/20 15:43:49;;;;;;;13.77;8.07;;;;;;;17.92;36.76;101355.97;5092470;28;20032;-70
2022/03/20 15:46:14;;;;;;;15.15;9.90;;;;;;;18.22;37.08;101351.22;5092812;28;20035;-70
2022/03/20 15:48:40;;;;;;;11.63;8.05;;;;;;;18.18;35.85;101364.25;5093000;28;20057;-69
2022/03/20 15:51:06;;;;;;;16.00;9.73;;;;;;;18.33;36.21;101350.69;5092773;28;20549;-68
2022/03/20 15:53:33;;;;;;;15.27;8.75;;;;;;;18.36;34.79;101350.28;5089852;28;20124;-68
2022/03/20 15:56:00;;;;;;;18.00;8.98;;;;;;;18.44;34.30;101360.09;5093606;28;20039;-70
2022/03/20 15:58:31;;;;;;;15.48;8.85;;;;;;;18.26;34.85;101352.53;5093621;28;20040;-68
2022/03/20 16:00:57;;;;;;;20.00;8.50;;;;;;;18.28;35.67;101349.63;5094029;28;20695;-69
2022/03/20 16:03:23;;;;;;;17.20;9.32;;;;;;;18.17;35.41;101356.38;5100350;28;20580;-68
2022/03/20 16:05:48;;;;;;;16.30;9.18;;;;;;;17.90;35.89;101348.09;5093996;28;20059;-69
2022/03/20 16:08:15;;;;;;;13.32;8.95;;;;;;;17.96;35.43;101351.03;5092038;28;20043;-69
2022/03/20 16:10:42;;;;;;;15.17;9.13;;;;;;;17.96;35.63;101351.03;5092935;28;20031;-69
2022/03/20 16:13:11;;;;;;;15.18;9.20;;;;;;;17.97;34.84;101364.31;5092793;28;20110;-68
2022/03/20 16:15:41;;;;;;;20.75;9.43;;;;;;;17.89;34.57;101356.38;5096081;28;20111;-69
2022/03/20 16:18:09;;;;;;;15.30;9.98;;;;;;;17.80;34.46;101362.91;5094320;28;20024;-70
2022/03/20 16:20:36;;;;;;;13.63;7.75;;;;;;;17.89;34.28;101357.19;5093417;28;20528;-69
2022/03/20 16:28:32;;;;;;;17.42;9.95;;;;;;;17.74;33.94;101347.53;5092138;28;20043;-70
2022/03/20 16:31:12;;;;;;;14.23;9.17;;;;;;;17.73;34.30;101356.63;5091768;28;20024;-69
2022/03/20 16:33:39;;;;;;;18.98;9.50;;;;;;;17.57;34.35;101355.00;5088167;28;20114;-69
2022/03/20 16:36:05;;;;;;;19.92;10.82;;;;;;;17.69;33.83;101356.16;5091925;28;20082;-69
2022/03/20 16:38:31;;;;;;;17.23;9.63;;;;;;;17.64;33.67;101356.72;5091696;28;20104;-68
2022/03/20 16:40:58;;;;;;;22.23;10.82;;;;;;;17.63;33.81;101360.47;5090685;28;20434;-69
2022/03/20 16:43:25;;;;;;;16.53;10.33;;;;;;;17.33;34.42;101359.72;5090405;28;20079;-69
2022/03/20 16:45:52;;;;;;;17.80;10.95;;;;;;;17.39;34.90;101366.22;5090610;28;20028;-69
2022/03/20 16:48:21;;;;;;;19.10;11.40;;;;;;;17.30;34.52;101368.19;5091635;28;20043;-70
2022/03/20 16:50:47;;;;;;;19.85;10.88;;;;;;;17.34;34.76;101364.09;5091762;28;20043;-69
2022/03/20 16:53:14;;;;;;;18.48;12.07;;;;;;;17.24;35.53;101366.25;5086745;28;20043;-69
2022/03/20 16:55:43;;;;;;;22.70;11.93;;;;;;;17.25;35.31;101359.00;5091639;28;20105;-69
2022/03/20 16:58:11;;;;;;;18.30;10.65;;;;;;;17.18;35.86;101364.31;5091555;28;20554;-69
2022/03/20 17:00:37;;;;;;;24.65;11.77;;;;;;;17.20;35.47;101353.34;5091284;28;20054;-69
2022/03/20 17:03:05;;;;;;;18.25;10.82;;;;;;;17.16;35.69;101371.75;5090744;28;20040;-70
2022/03/20 17:05:33;;;;;;;23.02;11.52;;;;;;;16.93;36.24;101357.59;5091788;28;20166;-70
2022/03/20 17:07:59;;;;;;;20.10;11.05;;;;;;;17.03;35.95;101369.75;5091285;28;20508;-70
2022/03/20 17:10:25;;;;;;;22.23;11.75;;;;;;;17.03;35.95;101371.59;5091825;28;20036;-71
2022/03/20 17:12:52;;;;;;;17.17;11.82;;;;;;;16.90;36.59;101380.34;5090026;28;20491;-71
2022/03/20 17:15:18;;;;;;;17.13;10.82;;;;;;;16.87;37.12;101380.72;5091778;28;20436;-70
2022/03/20 17:17:44;;;;;;;19.33;10.10;;;;;;;16.79;36.92;101381.66;5091110;28;20043;-70